sensor_id;sensor_type;location;lat;lon;timestamp;P1;durP1;ratioP1;P2;durP2;ratioP2
61471;SDS011;47337;54.068;12.114;2023-06-19T00:00:08;10.07;;;7.78;;
61471;SDS011;47337;54.068;12.114;2023-06-19T00:02:39;8.52;;;7.68;;
61471;SDS011;47337;54.068;12.114;2023-06-19T00:05:05;10.55;;;7.82;;
61471;SDS011;47337;54.068;12.114;2023-06-19T00:07:36;11.80;;;8.40;;
61471;SDS011;47337;54.068;12.114;2023-06-19T00:10:04;9.25;;;7.75;;
61471;SDS011;47337;54.068;12.114;2023-06-19T00:12:33;10.27;;;8.52;;
61471;SDS011;47337;54.068;12.114;2023-06-19T00:14:58;9.57;;;7.93;;
61471;SDS011;47337;54.068;12.114;2023-06-19T00:17:24;10.43;;;7.93;;
61471;SDS011;47337;54.068;12.114;2023-06-19T00:19:51;11.20;;;8.10;;
61471;SDS011;47337;54.068;12.114;2023-06-19T00:22:17;11.00;;;8.68;;
61471;SDS011;47337;54.068;12.114;2023-06-19T00:24:44;10.48;;;7.93;;
61471;SDS011;47337;54.068;12.114;2023-06-19T00:27:10;9.18;;;7.60;;
61471;SDS011;47337;54.068;12.114;2023-06-19T00:29:36;12.43;;;8.30;;
61471;SDS011;47337;54.068;12.114;2023-06-19T00:32:02;10.00;;;7.35;;
61471;SDS011;47337;54.068;12.114;2023-06-19T00:34:28;11.63;;;7.93;;
61471;SDS011;47337;54.068;12.114;2023-06-19T00:36:53;14.25;;;8.93;;
61471;SDS011;47337;54.068;12.114;2023-06-19T00:39:24;15.30;;;9.13;;
61471;SDS011;47337;54.068;12.114;2023-06-19T00:41:53;11.38;;;8.30;;
61471;SDS011;47337;54.068;12.114;2023-06-19T00:44:19;10.35;;;8.15;;
61471;SDS011;47337;54.068;12.114;2023-06-19T00:46:44;11.02;;;8.07;;
61471;SDS011;47337;54.068;12.114;2023-06-19T00:49:09;11.35;;;8.93;;
61471;SDS011;47337;54.068;12.114;2023-06-19T00:51:35;10.60;;;8.30;;
61471;SDS011;47337;54.068;12.114;2023-06-19T00:54:03;10.48;;;8.50;;
61471;SDS011;47337;54.068;12.114;2023-06-19T00:56:29;9.30;;;8.10;;
61471;SDS011;47337;54.068;12.114;2023-06-19T00:58:54;10.35;;;8.40;;
61471;SDS011;47337;54.068;12.114;2023-06-19T01:01:20;11.68;;;8.38;;
61471;SDS011;47337;54.068;12.114;2023-06-19T01:03:46;11.40;;;8.45;;
61471;SDS011;47337;54.068;12.114;2023-06-19T01:06:15;10.18;;;8.27;;
61471;SDS011;47337;54.068;12.114;2023-06-19T01:08:58;11.05;;;8.70;;
61471;SDS011;47337;54.068;12.114;2023-06-19T01:11:25;10.38;;;8.48;;
61471;SDS011;47337;54.068;12.114;2023-06-19T01:13:55;12.85;;;9.15;;
61471;SDS011;47337;54.068;12.114;2023-06-19T01:16:23;11.35;;;8.50;;
61471;SDS011;47337;54.068;12.114;2023-06-19T01:18:48;12.30;;;8.48;;
61471;SDS011;47337;54.068;12.114;2023-06-19T01:21:18;10.45;;;8.77;;
61471;SDS011;47337;54.068;12.114;2023-06-19T01:23:43;10.80;;;8.95;;
61471;SDS011;47337;54.068;12.114;2023-06-19T01:26:09;13.13;;;9.98;;
61471;SDS011;47337;54.068;12.114;2023-06-19T01:28:35;15.50;;;9.90;;
61471;SDS011;47337;54.068;12.114;2023-06-19T01:31:02;10.77;;;9.45;;
61471;SDS011;47337;54.068;12.114;2023-06-19T01:33:32;12.20;;;8.95;;
61471;SDS011;47337;54.068;12.114;2023-06-19T01:35:57;10.82;;;8.80;;
61471;SDS011;47337;54.068;12.114;2023-06-19T01:38:23;12.18;;;9.63;;
61471;SDS011;47337;54.068;12.114;2023-06-19T01:40:53;12.30;;;9.63;;
61471;SDS011;47337;54.068;12.114;2023-06-19T01:43:19;12.65;;;9.23;;
61471;SDS011;47337;54.068;12.114;2023-06-19T01:45:45;11.38;;;9.05;;
61471;SDS011;47337;54.068;12.114;2023-06-19T01:48:11;10.27;;;8.63;;
61471;SDS011;47337;54.068;12.114;2023-06-19T01:50:37;12.32;;;8.48;;
61471;SDS011;47337;54.068;12.114;2023-06-19T01:53:03;11.68;;;8.85;;
61471;SDS011;47337;54.068;12.114;2023-06-19T01:55:28;13.38;;;9.52;;
61471;SDS011;47337;54.068;12.114;2023-06-19T01:57:53;10.43;;;9.18;;
61471;SDS011;47337;54.068;12.114;2023-06-19T02:00:18;12.02;;;8.98;;
61471;SDS011;47337;54.068;12.114;2023-06-19T02:02:44;11.43;;;9.48;;
61471;SDS011;47337;54.068;12.114;2023-06-19T02:05:11;14.40;;;10.88;;
61471;SDS011;47337;54.068;12.114;2023-06-19T02:07:37;13.13;;;9.73;;
61471;SDS011;47337;54.068;12.114;2023-06-19T02:10:03;12.35;;;10.57;;
61471;SDS011;47337;54.068;12.114;2023-06-19T02:12:29;13.00;;;10.90;;
61471;SDS011;47337;54.068;12.114;2023-06-19T02:14:55;17.30;;;11.75;;
61471;SDS011;47337;54.068;12.114;2023-06-19T02:17:20;14.23;;;10.95;;
61471;SDS011;47337;54.068;12.114;2023-06-19T02:19:45;12.77;;;10.77;;
61471;SDS011;47337;54.068;12.114;2023-06-19T02:22:13;14.25;;;10.27;;
61471;SDS011;47337;54.068;12.114;2023-06-19T02:24:40;12.00;;;10.25;;
61471;SDS011;47337;54.068;12.114;2023-06-19T02:27:06;15.45;;;11.50;;
61471;SDS011;47337;54.068;12.114;2023-06-19T02:29:31;13.50;;;10.05;;
61471;SDS011;47337;54.068;12.114;2023-06-19T02:31:58;13.85;;;10.40;;
61471;SDS011;47337;54.068;12.114;2023-06-19T02:34:24;15.00;;;11.30;;
61471;SDS011;47337;54.068;12.114;2023-06-19T02:36:49;12.57;;;10.20;;
61471;SDS011;47337;54.068;12.114;2023-06-19T02:39:15;15.02;;;10.80;;
61471;SDS011;47337;54.068;12.114;2023-06-19T02:41:40;15.70;;;10.23;;
61471;SDS011;47337;54.068;12.114;2023-06-19T02:44:10;12.73;;;10.70;;
61471;SDS011;47337;54.068;12.114;2023-06-19T02:46:36;15.23;;;11.43;;
61471;SDS011;47337;54.068;12.114;2023-06-19T02:49:03;14.07;;;10.48;;
61471;SDS011;47337;54.068;12.114;2023-06-19T02:51:29;13.50;;;11.10;;
61471;SDS011;47337;54.068;12.114;2023-06-19T02:53:54;12.43;;;10.25;;
61471;SDS011;47337;54.068;12.114;2023-06-19T02:56:19;15.45;;;11.43;;
61471;SDS011;47337;54.068;12.114;2023-06-19T02:58:47;12.32;;;10.57;;
61471;SDS011;47337;54.068;12.114;2023-06-19T03:01:14;13.85;;;10.50;;
61471;SDS011;47337;54.068;12.114;2023-06-19T03:03:42;12.02;;;9.73;;
61471;SDS011;47337;54.068;12.114;2023-06-19T03:06:07;12.95;;;10.45;;
61471;SDS011;47337;54.068;12.114;2023-06-19T03:08:33;15.23;;;10.05;;
61471;SDS011;47337;54.068;12.114;2023-06-19T03:10:58;13.15;;;10.30;;
61471;SDS011;47337;54.068;12.114;2023-06-19T03:13:24;11.18;;;8.68;;
61471;SDS011;47337;54.068;12.114;2023-06-19T03:15:52;14.88;;;11.05;;
61471;SDS011;47337;54.068;12.114;2023-06-19T03:18:17;12.77;;;10.02;;
61471;SDS011;47337;54.068;12.114;2023-06-19T03:20:42;14.27;;;9.80;;
61471;SDS011;47337;54.068;12.114;2023-06-19T03:23:07;11.02;;;9.73;;
61471;SDS011;47337;54.068;12.114;2023-06-19T03:25:35;10.95;;;9.15;;
61471;SDS011;47337;54.068;12.114;2023-06-19T03:28:01;11.98;;;9.25;;
61471;SDS011;47337;54.068;12.114;2023-06-19T03:30:27;11.15;;;9.10;;
61471;SDS011;47337;54.068;12.114;2023-06-19T03:32:52;10.55;;;8.93;;
61471;SDS011;47337;54.068;12.114;2023-06-19T03:35:17;8.77;;;7.88;;
61471;SDS011;47337;54.068;12.114;2023-06-19T03:37:42;9.68;;;8.07;;
61471;SDS011;47337;54.068;12.114;2023-06-19T03:40:08;10.05;;;8.45;;
61471;SDS011;47337;54.068;12.114;2023-06-19T03:42:38;11.05;;;8.25;;
61471;SDS011;47337;54.068;12.114;2023-06-19T03:45:03;10.13;;;7.65;;
61471;SDS011;47337;54.068;12.114;2023-06-19T03:47:29;10.07;;;7.53;;
61471;SDS011;47337;54.068;12.114;2023-06-19T03:49:56;9.05;;;7.80;;
61471;SDS011;47337;54.068;12.114;2023-06-19T03:52:24;9.02;;;7.68;;
61471;SDS011;47337;54.068;12.114;2023-06-19T03:54:49;7.78;;;6.70;;
61471;SDS011;47337;54.068;12.114;2023-06-19T03:57:15;9.90;;;7.47;;
61471;SDS011;47337;54.068;12.114;2023-06-19T03:59:40;8.90;;;7.07;;
61471;SDS011;47337;54.068;12.114;2023-06-19T04:02:05;7.93;;;7.13;;
61471;SDS011;47337;54.068;12.114;2023-06-19T04:04:33;8.50;;;7.57;;
61471;SDS011;47337;54.068;12.114;2023-06-19T04:07:00;9.05;;;7.65;;
61471;SDS011;47337;54.068;12.114;2023-06-19T04:09:25;8.00;;;6.82;;
61471;SDS011;47337;54.068;12.114;2023-06-19T04:11:51;9.48;;;6.90;;
61471;SDS011;47337;54.068;12.114;2023-06-19T04:14:16;8.23;;;7.32;;
61471;SDS011;47337;54.068;12.114;2023-06-19T04:16:41;8.82;;;7.65;;
61471;SDS011;47337;54.068;12.114;2023-06-19T04:19:07;8.50;;;7.70;;
61471;SDS011;47337;54.068;12.114;2023-06-19T04:21:32;8.90;;;7.57;;
61471;SDS011;47337;54.068;12.114;2023-06-19T04:23:57;8.95;;;6.85;;
61471;SDS011;47337;54.068;12.114;2023-06-19T04:26:25;7.35;;;6.60;;
61471;SDS011;47337;54.068;12.114;2023-06-19T04:28:50;8.30;;;7.03;;
61471;SDS011;47337;54.068;12.114;2023-06-19T04:31:15;10.38;;;7.45;;
61471;SDS011;47337;54.068;12.114;2023-06-19T04:33:46;8.13;;;6.60;;
61471;SDS011;47337;54.068;12.114;2023-06-19T04:36:11;7.10;;;6.20;;
61471;SDS011;47337;54.068;12.114;2023-06-19T04:38:39;7.60;;;6.75;;
61471;SDS011;47337;54.068;12.114;2023-06-19T04:41:04;8.30;;;6.10;;
61471;SDS011;47337;54.068;12.114;2023-06-19T04:43:29;6.68;;;5.85;;
61471;SDS011;47337;54.068;12.114;2023-06-19T04:45:58;7.25;;;6.30;;
61471;SDS011;47337;54.068;12.114;2023-06-19T04:48:28;8.90;;;6.57;;
61471;SDS011;47337;54.068;12.114;2023-06-19T04:50:57;9.80;;;6.25;;
61471;SDS011;47337;54.068;12.114;2023-06-19T04:53:22;6.93;;;6.15;;
61471;SDS011;47337;54.068;12.114;2023-06-19T04:55:47;7.55;;;6.65;;
61471;SDS011;47337;54.068;12.114;2023-06-19T04:58:14;7.80;;;6.95;;
61471;SDS011;47337;54.068;12.114;2023-06-19T05:00:42;6.32;;;5.72;;
61471;SDS011;47337;54.068;12.114;2023-06-19T05:03:07;7.72;;;5.80;;
61471;SDS011;47337;54.068;12.114;2023-06-19T05:05:32;6.65;;;6.05;;
61471;SDS011;47337;54.068;12.114;2023-06-19T05:07:59;7.68;;;6.10;;
61471;SDS011;47337;54.068;12.114;2023-06-19T05:10:24;7.60;;;5.75;;
61471;SDS011;47337;54.068;12.114;2023-06-19T05:12:52;7.00;;;6.30;;
61471;SDS011;47337;54.068;12.114;2023-06-19T05:15:18;6.65;;;5.63;;
61471;SDS011;47337;54.068;12.114;2023-06-19T05:17:43;6.03;;;5.43;;
61471;SDS011;47337;54.068;12.114;2023-06-19T05:20:11;7.68;;;6.43;;
61471;SDS011;47337;54.068;12.114;2023-06-19T05:22:36;7.30;;;6.60;;
61471;SDS011;47337;54.068;12.114;2023-06-19T05:25:02;7.72;;;6.18;;
61471;SDS011;47337;54.068;12.114;2023-06-19T05:27:30;13.13;;;6.88;;
61471;SDS011;47337;54.068;12.114;2023-06-19T05:29:55;13.68;;;6.50;;
61471;SDS011;47337;54.068;12.114;2023-06-19T05:32:20;7.80;;;6.63;;
61471;SDS011;47337;54.068;12.114;2023-06-19T05:34:48;6.22;;;5.50;;
61471;SDS011;47337;54.068;12.114;2023-06-19T05:37:16;7.72;;;5.72;;
61471;SDS011;47337;54.068;12.114;2023-06-19T05:39:44;7.05;;;6.40;;
61471;SDS011;47337;54.068;12.114;2023-06-19T05:42:09;6.45;;;5.70;;
61471;SDS011;47337;54.068;12.114;2023-06-19T05:44:36;8.98;;;5.75;;
61471;SDS011;47337;54.068;12.114;2023-06-19T05:47:02;7.38;;;5.95;;
61471;SDS011;47337;54.068;12.114;2023-06-19T05:49:29;9.55;;;5.68;;
61471;SDS011;47337;54.068;12.114;2023-06-19T05:51:57;6.57;;;5.80;;
61471;SDS011;47337;54.068;12.114;2023-06-19T05:54:26;8.65;;;6.18;;
61471;SDS011;47337;54.068;12.114;2023-06-19T05:56:52;6.38;;;5.78;;
61471;SDS011;47337;54.068;12.114;2023-06-19T05:59:17;8.35;;;6.30;;
61471;SDS011;47337;54.068;12.114;2023-06-19T06:01:42;7.72;;;6.80;;
61471;SDS011;47337;54.068;12.114;2023-06-19T06:04:08;6.90;;;6.18;;
61471;SDS011;47337;54.068;12.114;2023-06-19T06:06:33;6.78;;;6.10;;
61471;SDS011;47337;54.068;12.114;2023-06-19T06:09:00;9.13;;;5.90;;
61471;SDS011;47337;54.068;12.114;2023-06-19T06:11:26;9.32;;;5.95;;
61471;SDS011;47337;54.068;12.114;2023-06-19T06:13:51;6.90;;;5.82;;
61471;SDS011;47337;54.068;12.114;2023-06-19T06:16:16;7.25;;;6.20;;
61471;SDS011;47337;54.068;12.114;2023-06-19T06:18:41;7.43;;;6.30;;
61471;SDS011;47337;54.068;12.114;2023-06-19T06:21:09;8.43;;;6.82;;
61471;SDS011;47337;54.068;12.114;2023-06-19T06:23:38;7.65;;;6.45;;
61471;SDS011;47337;54.068;12.114;2023-06-19T06:26:06;7.70;;;6.15;;
61471;SDS011;47337;54.068;12.114;2023-06-19T06:28:31;6.75;;;6.03;;
61471;SDS011;47337;54.068;12.114;2023-06-19T06:30:56;7.10;;;6.43;;
61471;SDS011;47337;54.068;12.114;2023-06-19T06:33:22;7.10;;;6.40;;
61471;SDS011;47337;54.068;12.114;2023-06-19T06:35:47;7.03;;;6.32;;
61471;SDS011;47337;54.068;12.114;2023-06-19T06:38:13;8.35;;;6.35;;
61471;SDS011;47337;54.068;12.114;2023-06-19T06:40:40;6.35;;;5.65;;
61471;SDS011;47337;54.068;12.114;2023-06-19T06:43:07;7.70;;;6.50;;
61471;SDS011;47337;54.068;12.114;2023-06-19T06:45:32;6.80;;;6.10;;
61471;SDS011;47337;54.068;12.114;2023-06-19T06:47:58;8.40;;;6.15;;
61471;SDS011;47337;54.068;12.114;2023-06-19T06:50:23;7.45;;;5.97;;
61471;SDS011;47337;54.068;12.114;2023-06-19T06:52:49;8.07;;;5.88;;
61471;SDS011;47337;54.068;12.114;2023-06-19T06:55:14;7.50;;;6.10;;
61471;SDS011;47337;54.068;12.114;2023-06-19T06:57:39;8.50;;;6.80;;
61471;SDS011;47337;54.068;12.114;2023-06-19T07:00:05;6.93;;;6.18;;
61471;SDS011;47337;54.068;12.114;2023-06-19T07:02:32;8.27;;;6.20;;
61471;SDS011;47337;54.068;12.114;2023-06-19T07:04:57;8.32;;;5.97;;
61471;SDS011;47337;54.068;12.114;2023-06-19T07:07:22;9.18;;;6.75;;
61471;SDS011;47337;54.068;12.114;2023-06-19T07:09:47;7.90;;;6.25;;
61471;SDS011;47337;54.068;12.114;2023-06-19T07:12:13;9.57;;;6.77;;
61471;SDS011;47337;54.068;12.114;2023-06-19T07:14:40;7.85;;;7.05;;
61471;SDS011;47337;54.068;12.114;2023-06-19T07:17:05;7.53;;;6.10;;
61471;SDS011;47337;54.068;12.114;2023-06-19T07:19:32;9.32;;;7.05;;
61471;SDS011;47337;54.068;12.114;2023-06-19T07:21:57;8.88;;;6.80;;
61471;SDS011;47337;54.068;12.114;2023-06-19T07:24:22;7.72;;;6.97;;
61471;SDS011;47337;54.068;12.114;2023-06-19T07:26:50;7.70;;;6.72;;
61471;SDS011;47337;54.068;12.114;2023-06-19T07:29:15;7.75;;;7.05;;
61471;SDS011;47337;54.068;12.114;2023-06-19T07:31:41;8.45;;;7.65;;
61471;SDS011;47337;54.068;12.114;2023-06-19T07:34:10;9.85;;;7.72;;
61471;SDS011;47337;54.068;12.114;2023-06-19T07:36:36;8.85;;;7.63;;
61471;SDS011;47337;54.068;12.114;2023-06-19T07:39:01;8.90;;;6.72;;
61471;SDS011;47337;54.068;12.114;2023-06-19T07:41:26;8.50;;;7.70;;
61471;SDS011;47337;54.068;12.114;2023-06-19T07:43:52;10.73;;;7.28;;
61471;SDS011;47337;54.068;12.114;2023-06-19T07:46:17;8.18;;;7.38;;
61471;SDS011;47337;54.068;12.114;2023-06-19T07:48:42;8.27;;;7.47;;
61471;SDS011;47337;54.068;12.114;2023-06-19T07:51:07;9.95;;;7.43;;
61471;SDS011;47337;54.068;12.114;2023-06-19T07:53:33;8.80;;;7.90;;
61471;SDS011;47337;54.068;12.114;2023-06-19T07:55:58;8.55;;;7.70;;
61471;SDS011;47337;54.068;12.114;2023-06-19T07:58:23;8.27;;;7.47;;
61471;SDS011;47337;54.068;12.114;2023-06-19T08:00:48;8.93;;;8.02;;
61471;SDS011;47337;54.068;12.114;2023-06-19T08:03:13;10.50;;;8.45;;
61471;SDS011;47337;54.068;12.114;2023-06-19T08:05:39;10.70;;;8.45;;
61471;SDS011;47337;54.068;12.114;2023-06-19T08:08:04;9.45;;;7.28;;
61471;SDS011;47337;54.068;12.114;2023-06-19T08:10:32;9.45;;;8.52;;
61471;SDS011;47337;54.068;12.114;2023-06-19T08:12:59;10.35;;;8.43;;
61471;SDS011;47337;54.068;12.114;2023-06-19T08:15:24;9.53;;;8.60;;
61471;SDS011;47337;54.068;12.114;2023-06-19T08:17:50;8.98;;;8.07;;
61471;SDS011;47337;54.068;12.114;2023-06-19T08:20:15;9.73;;;8.70;;
61471;SDS011;47337;54.068;12.114;2023-06-19T08:22:40;9.75;;;8.73;;
61471;SDS011;47337;54.068;12.114;2023-06-19T08:25:05;9.82;;;8.63;;
61471;SDS011;47337;54.068;12.114;2023-06-19T08:27:31;9.45;;;8.55;;
61471;SDS011;47337;54.068;12.114;2023-06-19T08:29:58;9.38;;;8.35;;
61471;SDS011;47337;54.068;12.114;2023-06-19T08:32:24;9.90;;;8.23;;
61471;SDS011;47337;54.068;12.114;2023-06-19T08:34:50;9.43;;;8.43;;
61471;SDS011;47337;54.068;12.114;2023-06-19T08:37:15;11.35;;;8.95;;
61471;SDS011;47337;54.068;12.114;2023-06-19T08:39:40;9.88;;;8.93;;
61471;SDS011;47337;54.068;12.114;2023-06-19T08:42:06;9.75;;;8.85;;
61471;SDS011;47337;54.068;12.114;2023-06-19T08:44:32;9.70;;;8.73;;
61471;SDS011;47337;54.068;12.114;2023-06-19T08:46:57;10.27;;;9.32;;
61471;SDS011;47337;54.068;12.114;2023-06-19T08:49:28;9.60;;;8.70;;
61471;SDS011;47337;54.068;12.114;2023-06-19T08:51:54;9.93;;;8.95;;
61471;SDS011;47337;54.068;12.114;2023-06-19T08:54:19;10.57;;;9.50;;
61471;SDS011;47337;54.068;12.114;2023-06-19T08:56:44;9.68;;;8.77;;
61471;SDS011;47337;54.068;12.114;2023-06-19T08:59:15;11.98;;;9.77;;
61471;SDS011;47337;54.068;12.114;2023-06-19T09:01:50;10.68;;;9.57;;
61471;SDS011;47337;54.068;12.114;2023-06-19T09:04:28;10.05;;;8.63;;
61471;SDS011;47337;54.068;12.114;2023-06-19T09:06:59;10.50;;;8.77;;
61471;SDS011;47337;54.068;12.114;2023-06-19T09:09:27;10.23;;;8.80;;
61471;SDS011;47337;54.068;12.114;2023-06-19T09:12:06;12.65;;;9.50;;
61471;SDS011;47337;54.068;12.114;2023-06-19T09:14:41;12.00;;;9.65;;
61471;SDS011;47337;54.068;12.114;2023-06-19T09:17:07;11.10;;;9.98;;
61471;SDS011;47337;54.068;12.114;2023-06-19T09:19:33;11.00;;;9.65;;
61471;SDS011;47337;54.068;12.114;2023-06-19T09:22:05;9.57;;;8.55;;
61471;SDS011;47337;54.068;12.114;2023-06-19T09:24:38;11.43;;;9.90;;
61471;SDS011;47337;54.068;12.114;2023-06-19T09:27:07;10.75;;;9.65;;
61471;SDS011;47337;54.068;12.114;2023-06-19T09:29:35;10.55;;;9.45;;
61471;SDS011;47337;54.068;12.114;2023-06-19T09:32:03;11.80;;;9.25;;
61471;SDS011;47337;54.068;12.114;2023-06-19T09:34:38;9.63;;;8.68;;
61471;SDS011;47337;54.068;12.114;2023-06-19T09:37:05;10.15;;;9.07;;
61471;SDS011;47337;54.068;12.114;2023-06-19T09:39:33;10.65;;;9.55;;
61471;SDS011;47337;54.068;12.114;2023-06-19T09:42:01;11.38;;;9.50;;
61471;SDS011;47337;54.068;12.114;2023-06-19T09:44:28;10.32;;;9.23;;
61471;SDS011;47337;54.068;12.114;2023-06-19T09:46:56;10.18;;;9.15;;
61471;SDS011;47337;54.068;12.114;2023-06-19T09:49:29;10.30;;;9.40;;
61471;SDS011;47337;54.068;12.114;2023-06-19T09:51:56;9.73;;;8.82;;
61471;SDS011;47337;54.068;12.114;2023-06-19T09:54:22;10.98;;;9.77;;
61471;SDS011;47337;54.068;12.114;2023-06-19T09:56:47;12.23;;;9.95;;
61471;SDS011;47337;54.068;12.114;2023-06-19T09:59:16;12.13;;;10.43;;
61471;SDS011;47337;54.068;12.114;2023-06-19T10:01:42;11.02;;;10.00;;
61471;SDS011;47337;54.068;12.114;2023-06-19T10:04:08;10.45;;;9.45;;
61471;SDS011;47337;54.068;12.114;2023-06-19T10:06:45;10.38;;;9.38;;
61471;SDS011;47337;54.068;12.114;2023-06-19T10:09:11;10.88;;;9.88;;
61471;SDS011;47337;54.068;12.114;2023-06-19T10:14:11;12.63;;;10.18;;
61471;SDS011;47337;54.068;12.114;2023-06-19T10:16:37;11.65;;;10.43;;
61471;SDS011;47337;54.068;12.114;2023-06-19T10:19:10;13.55;;;11.18;;
61471;SDS011;47337;54.068;12.114;2023-06-19T10:21:43;11.63;;;10.50;;
61471;SDS011;47337;54.068;12.114;2023-06-19T10:26:36;12.07;;;10.75;;
61471;SDS011;47337;54.068;12.114;2023-06-19T10:29:13;11.43;;;10.40;;
61471;SDS011;47337;54.068;12.114;2023-06-19T10:31:38;12.57;;;11.27;;
61471;SDS011;47337;54.068;12.114;2023-06-19T10:34:03;13.05;;;10.88;;
61471;SDS011;47337;54.068;12.114;2023-06-19T10:36:29;12.90;;;11.60;;
61471;SDS011;47337;54.068;12.114;2023-06-19T10:38:55;11.88;;;10.68;;
61471;SDS011;47337;54.068;12.114;2023-06-19T10:41:21;12.40;;;11.20;;
61471;SDS011;47337;54.068;12.114;2023-06-19T10:46:18;13.52;;;10.73;;
61471;SDS011;47337;54.068;12.114;2023-06-19T10:48:44;11.35;;;10.15;;
61471;SDS011;47337;54.068;12.114;2023-06-19T10:51:09;11.10;;;10.10;;
61471;SDS011;47337;54.068;12.114;2023-06-19T10:53:34;11.57;;;10.50;;
61471;SDS011;47337;54.068;12.114;2023-06-19T10:56:00;11.15;;;10.05;;
61471;SDS011;47337;54.068;12.114;2023-06-19T10:58:26;10.93;;;9.82;;
61471;SDS011;47337;54.068;12.114;2023-06-19T11:00:52;11.40;;;10.30;;
61471;SDS011;47337;54.068;12.114;2023-06-19T11:03:18;10.38;;;9.38;;
61471;SDS011;47337;54.068;12.114;2023-06-19T11:05:44;10.07;;;9.10;;
61471;SDS011;47337;54.068;12.114;2023-06-19T11:08:09;11.57;;;9.52;;
61471;SDS011;47337;54.068;12.114;2023-06-19T11:10:35;11.18;;;9.65;;
61471;SDS011;47337;54.068;12.114;2023-06-19T11:13:03;10.18;;;9.18;;
61471;SDS011;47337;54.068;12.114;2023-06-19T11:15:29;9.90;;;9.00;;
61471;SDS011;47337;54.068;12.114;2023-06-19T11:17:57;12.20;;;9.32;;
61471;SDS011;47337;54.068;12.114;2023-06-19T11:20:22;9.93;;;8.93;;
61471;SDS011;47337;54.068;12.114;2023-06-19T11:22:53;10.45;;;9.35;;
61471;SDS011;47337;54.068;12.114;2023-06-19T11:25:19;9.38;;;8.57;;
61471;SDS011;47337;54.068;12.114;2023-06-19T11:27:45;10.05;;;9.15;;
61471;SDS011;47337;54.068;12.114;2023-06-19T11:30:11;10.60;;;9.50;;
61471;SDS011;47337;54.068;12.114;2023-06-19T11:32:38;9.93;;;8.95;;
61471;SDS011;47337;54.068;12.114;2023-06-19T11:35:11;9.40;;;8.50;;
61471;SDS011;47337;54.068;12.114;2023-06-19T11:37:40;10.15;;;8.98;;
61471;SDS011;47337;54.068;12.114;2023-06-19T11:40:05;10.00;;;8.82;;
61471;SDS011;47337;54.068;12.114;2023-06-19T11:42:52;9.70;;;8.80;;
61471;SDS011;47337;54.068;12.114;2023-06-19T11:45:18;9.77;;;8.88;;
61471;SDS011;47337;54.068;12.114;2023-06-19T11:47:44;9.45;;;8.55;;
61471;SDS011;47337;54.068;12.114;2023-06-19T11:50:12;9.63;;;8.73;;
61471;SDS011;47337;54.068;12.114;2023-06-19T11:52:38;10.07;;;9.13;;
61471;SDS011;47337;54.068;12.114;2023-06-19T11:55:04;10.30;;;8.50;;
61471;SDS011;47337;54.068;12.114;2023-06-19T11:57:29;9.10;;;8.20;;
61471;SDS011;47337;54.068;12.114;2023-06-19T11:59:55;9.40;;;8.50;;
61471;SDS011;47337;54.068;12.114;2023-06-19T12:02:20;8.10;;;7.30;;
61471;SDS011;47337;54.068;12.114;2023-06-19T12:04:46;9.07;;;8.00;;
61471;SDS011;47337;54.068;12.114;2023-06-19T12:07:11;9.07;;;8.27;;
61471;SDS011;47337;54.068;12.114;2023-06-19T12:09:38;10.10;;;7.97;;
61471;SDS011;47337;54.068;12.114;2023-06-19T12:12:06;8.23;;;7.25;;
61471;SDS011;47337;54.068;12.114;2023-06-19T12:14:32;7.70;;;7.00;;
61471;SDS011;47337;54.068;12.114;2023-06-19T12:16:57;8.63;;;7.25;;
61471;SDS011;47337;54.068;12.114;2023-06-19T12:19:22;8.07;;;7.28;;
61471;SDS011;47337;54.068;12.114;2023-06-19T12:21:48;8.45;;;7.40;;
61471;SDS011;47337;54.068;12.114;2023-06-19T12:24:15;7.70;;;7.00;;
61471;SDS011;47337;54.068;12.114;2023-06-19T12:26:41;7.18;;;6.53;;
61471;SDS011;47337;54.068;12.114;2023-06-19T12:29:06;7.80;;;7.10;;
61471;SDS011;47337;54.068;12.114;2023-06-19T12:31:32;6.70;;;6.10;;
61471;SDS011;47337;54.068;12.114;2023-06-19T12:33:57;8.18;;;6.30;;
61471;SDS011;47337;54.068;12.114;2023-06-19T12:36:23;6.37;;;5.87;;
61471;SDS011;47337;54.068;12.114;2023-06-19T12:38:49;6.90;;;6.20;;
61471;SDS011;47337;54.068;12.114;2023-06-19T12:41:14;6.95;;;6.20;;
61471;SDS011;47337;54.068;12.114;2023-06-19T12:43:42;7.15;;;6.45;;
61471;SDS011;47337;54.068;12.114;2023-06-19T12:46:07;7.63;;;6.10;;
61471;SDS011;47337;54.068;12.114;2023-06-19T12:48:32;7.30;;;6.23;;
61471;SDS011;47337;54.068;12.114;2023-06-19T12:50:58;7.20;;;6.13;;
61471;SDS011;47337;54.068;12.114;2023-06-19T12:53:23;7.40;;;6.70;;
61471;SDS011;47337;54.068;12.114;2023-06-19T12:55:52;7.18;;;6.40;;
61471;SDS011;47337;54.068;12.114;2023-06-19T12:58:17;7.88;;;6.40;;
61471;SDS011;47337;54.068;12.114;2023-06-19T13:00:45;7.97;;;6.40;;
61471;SDS011;47337;54.068;12.114;2023-06-19T13:03:13;7.38;;;6.50;;
61471;SDS011;47337;54.068;12.114;2023-06-19T13:05:40;7.30;;;6.63;;
61471;SDS011;47337;54.068;12.114;2023-06-19T13:08:08;8.07;;;6.72;;
61471;SDS011;47337;54.068;12.114;2023-06-19T13:10:33;7.82;;;7.03;;
61471;SDS011;47337;54.068;12.114;2023-06-19T13:12:58;7.15;;;6.32;;
61471;SDS011;47337;54.068;12.114;2023-06-19T13:15:26;6.68;;;6.07;;
61471;SDS011;47337;54.068;12.114;2023-06-19T13:17:53;7.40;;;6.32;;
61471;SDS011;47337;54.068;12.114;2023-06-19T13:20:18;7.45;;;6.72;;
61471;SDS011;47337;54.068;12.114;2023-06-19T13:22:43;7.77;;;7.00;;
61471;SDS011;47337;54.068;12.114;2023-06-19T13:25:08;6.77;;;6.17;;
61471;SDS011;47337;54.068;12.114;2023-06-19T13:27:34;7.05;;;6.35;;
61471;SDS011;47337;54.068;12.114;2023-06-19T13:30:02;7.65;;;6.35;;
61471;SDS011;47337;54.068;12.114;2023-06-19T13:32:27;7.60;;;6.97;;
61471;SDS011;47337;54.068;12.114;2023-06-19T13:34:52;8.25;;;6.70;;
61471;SDS011;47337;54.068;12.114;2023-06-19T13:37:21;6.40;;;5.80;;
61471;SDS011;47337;54.068;12.114;2023-06-19T13:39:48;6.68;;;6.10;;
61471;SDS011;47337;54.068;12.114;2023-06-19T13:42:16;7.28;;;6.60;;
61471;SDS011;47337;54.068;12.114;2023-06-19T13:44:41;7.32;;;6.63;;
61471;SDS011;47337;54.068;12.114;2023-06-19T13:47:06;7.20;;;6.50;;
61471;SDS011;47337;54.068;12.114;2023-06-19T13:49:32;7.55;;;6.93;;
61471;SDS011;47337;54.068;12.114;2023-06-19T13:51:59;7.82;;;6.90;;
61471;SDS011;47337;54.068;12.114;2023-06-19T13:54:27;9.20;;;7.07;;
61471;SDS011;47337;54.068;12.114;2023-06-19T13:56:52;7.22;;;6.53;;
61471;SDS011;47337;54.068;12.114;2023-06-19T13:59:17;8.15;;;7.40;;
61471;SDS011;47337;54.068;12.114;2023-06-19T14:01:43;7.85;;;7.05;;
61471;SDS011;47337;54.068;12.114;2023-06-19T14:04:08;7.93;;;7.07;;
61471;SDS011;47337;54.068;12.114;2023-06-19T14:06:34;7.78;;;6.97;;
61471;SDS011;47337;54.068;12.114;2023-06-19T14:08:59;7.40;;;6.80;;
61471;SDS011;47337;54.068;12.114;2023-06-19T14:11:24;7.60;;;6.97;;
61471;SDS011;47337;54.068;12.114;2023-06-19T14:13:49;8.57;;;7.30;;
61471;SDS011;47337;54.068;12.114;2023-06-19T14:16:15;8.05;;;7.28;;
61471;SDS011;47337;54.068;12.114;2023-06-19T14:18:42;8.10;;;7.28;;
61471;SDS011;47337;54.068;12.114;2023-06-19T14:21:08;7.90;;;7.20;;
61471;SDS011;47337;54.068;12.114;2023-06-19T14:23:33;7.93;;;7.22;;
61471;SDS011;47337;54.068;12.114;2023-06-19T14:26:03;8.18;;;7.22;;
61471;SDS011;47337;54.068;12.114;2023-06-19T14:28:29;8.10;;;7.30;;